createdAt,value
2018-10-16T00:00:31.732Z,12.13
2018-10-16T00:05:35.123Z,12.37
2018-10-16T00:10:40.333Z,12.93
2018-10-16T00:15:43.801Z,12.40
2018-10-16T00:20:47.191Z,11.80
2018-10-16T00:25:50.581Z,12.47
2018-10-16T00:30:53.964Z,12.30
2018-10-16T00:35:57.350Z,11.33
2018-10-16T00:41:00.719Z,11.70
2018-10-16T00:46:04.103Z,12.53
2018-10-16T00:51:07.496Z,12.30
2018-10-16T00:56:10.875Z,13.00
2018-10-16T01:01:14.244Z,12.43
2018-10-16T01:06:17.631Z,12.23
2018-10-16T01:11:21.053Z,12.87
2018-10-16T01:16:24.514Z,12.43
2018-10-16T01:21:27.887Z,12.30
2018-10-16T01:26:31.255Z,11.80
2018-10-16T01:31:34.639Z,12.10
2018-10-16T01:36:38.040Z,12.20
2018-10-16T01:41:41.459Z,12.10
2018-10-16T01:46:44.835Z,13.40
2018-10-16T01:51:48.204Z,11.67
2018-10-16T01:56:51.591Z,12.27
2018-10-16T02:01:54.966Z,11.67
2018-10-16T02:06:58.386Z,12.30
2018-10-16T02:12:01.761Z,12.40
2018-10-16T02:17:05.561Z,12.07
2018-10-16T02:22:08.952Z,12.13
2018-10-16T02:27:12.331Z,12.70
2018-10-16T02:32:15.697Z,11.80
2018-10-16T02:37:19.093Z,12.30
2018-10-16T02:42:22.507Z,11.70
2018-10-16T02:47:25.983Z,12.47
2018-10-16T02:52:29.375Z,12.07
2018-10-16T02:57:32.784Z,12.63
2018-10-16T03:02:36.169Z,11.97
2018-10-16T03:07:39.619Z,11.87
2018-10-16T03:12:43.023Z,11.47
2018-10-16T03:17:46.414Z,11.63
2018-10-16T03:22:49.869Z,12.23
2018-10-16T03:27:53.278Z,12.47
2018-10-16T03:32:56.735Z,11.83
2018-10-16T03:38:00.110Z,13.03
2018-10-16T03:43:03.523Z,12.70
2018-10-16T03:48:06.911Z,12.37
2018-10-16T03:53:10.291Z,12.80
2018-10-16T03:58:13.683Z,12.83
2018-10-16T04:03:17.073Z,12.30
2018-10-16T04:08:20.443Z,12.20
2018-10-16T04:13:23.845Z,12.67
2018-10-16T04:18:27.227Z,13.07
2018-10-16T04:23:30.622Z,12.97
2018-10-16T04:28:34.051Z,13.53
2018-10-16T04:33:37.791Z,12.73
2018-10-16T04:38:41.168Z,12.63
2018-10-16T04:43:44.592Z,12.37
2018-10-16T04:48:48.016Z,12.47
2018-10-16T04:53:51.565Z,12.47
2018-10-16T04:58:55.045Z,12.37
2018-10-16T05:03:58.526Z,12.70
2018-10-16T05:09:01.919Z,12.70
2018-10-16T05:14:05.307Z,13.23
2018-10-16T05:19:08.770Z,11.37
2018-10-16T05:24:12.262Z,12.20
2018-10-16T05:29:15.685Z,12.43
2018-10-16T05:34:19.066Z,12.43
2018-10-16T05:39:22.511Z,12.53
2018-10-16T05:44:25.916Z,13.10
2018-10-16T05:49:29.400Z,11.97
2018-10-16T05:54:32.779Z,13.83
2018-10-16T05:59:36.214Z,13.30
2018-10-16T06:04:39.935Z,13.47
2018-10-16T06:09:43.411Z,12.33
2018-10-16T06:14:46.963Z,12.93
2018-10-16T06:19:50.411Z,13.00
2018-10-16T06:24:53.833Z,12.80
2018-10-16T06:29:57.235Z,13.03
2018-10-16T06:35:00.852Z,12.70
2018-10-16T06:40:04.535Z,13.63
2018-10-16T06:45:10.161Z,12.88
2018-10-16T06:50:13.640Z,13.13
2018-10-16T06:55:17.144Z,12.47
2018-10-16T07:00:20.640Z,12.53
2018-10-16T07:05:24.375Z,12.80
2018-10-16T07:10:27.780Z,12.83
2018-10-16T07:15:31.210Z,12.03
2018-10-16T07:20:34.637Z,12.87
2018-10-16T07:25:38.038Z,11.90
2018-10-16T07:30:41.435Z,11.77
2018-10-16T07:35:44.819Z,11.40
2018-10-16T07:40:48.515Z,11.33
2018-10-16T07:45:52.065Z,11.73
2018-10-16T07:50:55.515Z,10.60
2018-10-16T07:55:58.908Z,11.10
2018-10-16T08:01:02.364Z,11.50
2018-10-16T08:06:06.190Z,11.77
2018-10-16T08:11:09.722Z,11.40
2018-10-16T08:16:13.108Z,11.80
2018-10-16T08:21:16.534Z,10.80
2018-10-16T08:26:19.911Z,11.33
2018-10-16T08:31:23.291Z,10.77
2018-10-16T08:36:26.885Z,10.07
2018-10-16T08:42:43.078Z,10.30
2018-10-16T08:47:58.639Z,9.50
2018-10-16T08:53:02.360Z,9.10
2018-10-16T08:58:06.159Z,10.23
2018-10-16T09:03:09.549Z,9.87
2018-10-16T09:08:13.027Z,8.93
2018-10-16T09:13:16.436Z,9.93
2018-10-16T09:18:19.852Z,10.23
2018-10-16T09:23:23.235Z,9.40
2018-10-16T09:28:26.639Z,9.97
2018-10-16T09:33:30.079Z,9.60
2018-10-16T09:38:33.527Z,9.50
2018-10-16T09:43:37.924Z,9.13
2018-10-16T09:48:41.379Z,9.80
2018-10-16T09:53:44.810Z,9.17
2018-10-16T09:58:48.216Z,9.03
2018-10-16T10:03:51.686Z,8.50
2018-10-16T10:08:55.180Z,8.25
2018-10-16T10:13:58.612Z,8.03
2018-10-16T10:19:02.100Z,8.98
2018-10-16T10:24:05.572Z,9.17
2018-10-16T10:29:09.102Z,9.77
2018-10-16T10:34:12.556Z,9.03
2018-10-16T10:39:16.000Z,8.30
2018-10-16T10:44:19.507Z,7.20
2018-10-16T10:49:22.892Z,8.00
2018-10-16T10:54:26.299Z,7.67
2018-10-16T10:59:29.784Z,7.60
2018-10-16T11:04:33.223Z,8.33
2018-10-16T11:09:36.635Z,7.80
2018-10-16T11:14:40.019Z,7.80
2018-10-16T11:19:43.411Z,8.73
2018-10-16T11:24:46.788Z,8.37
2018-10-16T11:29:50.163Z,8.30
2018-10-16T11:34:53.599Z,8.63
2018-10-16T11:39:57.016Z,8.30
2018-10-16T11:45:00.553Z,8.10
2018-10-16T11:50:04.032Z,8.63
2018-10-16T11:55:07.929Z,7.70
2018-10-16T12:00:14.006Z,8.33
2018-10-16T12:05:17.460Z,8.60
2018-10-16T12:10:20.878Z,7.97
2018-10-16T12:15:24.261Z,7.97
2018-10-16T12:20:38.207Z,8.40
2018-10-16T12:25:41.709Z,8.27
2018-10-16T12:30:45.285Z,8.30
2018-10-16T12:35:48.687Z,8.07
2018-10-16T12:40:52.250Z,8.00
2018-10-16T12:45:56.272Z,8.17
2018-10-16T12:50:59.903Z,8.70
2018-10-16T12:56:03.371Z,8.20
2018-10-16T13:01:06.879Z,8.73
2018-10-16T13:06:13.349Z,8.90
2018-10-16T13:11:17.122Z,8.07
2018-10-16T13:16:20.563Z,8.13
2018-10-16T13:21:23.970Z,7.90
2018-10-16T13:26:27.444Z,8.10
2018-10-16T13:31:30.852Z,8.27
2018-10-16T13:36:34.232Z,8.20
2018-10-16T13:41:37.624Z,8.13
2018-10-16T13:46:41.090Z,8.47
2018-10-16T13:51:44.600Z,8.40
2018-10-16T13:56:48.070Z,8.17
2018-10-16T14:01:51.498Z,8.60
2018-10-16T14:06:55.023Z,8.83
2018-10-16T14:11:58.499Z,8.83
2018-10-16T14:17:01.923Z,8.87
2018-10-16T14:22:05.907Z,9.65
2018-10-16T14:27:09.308Z,8.97
2018-10-16T14:32:12.828Z,8.37
2018-10-16T14:37:16.189Z,8.60
2018-10-16T14:42:19.576Z,9.23
2018-10-16T14:47:23.027Z,8.97
2018-10-16T14:52:26.440Z,9.37
2018-10-16T14:57:29.833Z,9.37
2018-10-16T15:02:33.236Z,9.17
2018-10-16T15:07:36.770Z,9.70
2018-10-16T15:12:40.196Z,9.30
2018-10-16T15:17:43.586Z,9.50
2018-10-16T15:22:47.058Z,10.40
2018-10-16T15:27:50.567Z,10.40
2018-10-16T15:32:54.142Z,11.17
2018-10-16T15:37:57.559Z,11.10
2018-10-16T15:43:01.235Z,12.03
2018-10-16T15:48:04.992Z,11.73
2018-10-16T15:53:08.374Z,12.80
2018-10-16T15:58:11.873Z,11.97
2018-10-16T16:03:15.327Z,10.50
2018-10-16T16:08:18.709Z,11.57
2018-10-16T16:13:22.152Z,12.33
2018-10-16T16:18:25.597Z,12.27
2018-10-16T16:23:28.956Z,12.53
2018-10-16T16:28:32.390Z,12.50
2018-10-16T16:33:35.905Z,11.80
2018-10-16T16:38:39.475Z,11.77
2018-10-16T16:43:43.071Z,17.93
2018-10-16T16:48:46.500Z,19.30
2018-10-16T16:53:49.911Z,14.10
2018-10-16T16:58:53.311Z,12.78
2018-10-16T17:03:56.808Z,12.37
2018-10-16T17:09:00.260Z,12.95
2018-10-16T17:14:03.752Z,12.97
2018-10-16T17:19:07.612Z,16.43
2018-10-16T17:24:11.043Z,17.03
2018-10-16T17:29:14.431Z,18.40
2018-10-16T17:34:18.332Z,19.57
2018-10-16T17:39:21.758Z,19.17
2018-10-16T17:44:25.204Z,18.73
2018-10-16T17:49:28.696Z,19.23
2018-10-16T17:54:32.247Z,21.17
2018-10-16T17:59:35.725Z,19.63
2018-10-16T18:04:39.216Z,20.80
2018-10-16T18:09:42.880Z,22.93
2018-10-16T18:14:46.370Z,25.47
2018-10-16T18:19:49.820Z,26.67
2018-10-16T18:24:53.312Z,23.47
2018-10-16T18:29:56.829Z,24.73
2018-10-16T18:35:00.352Z,31.70
2018-10-16T18:40:03.929Z,36.47
2018-10-16T18:45:08.396Z,43.07
2018-10-16T18:50:13.120Z,43.13
2018-10-16T18:55:16.643Z,40.38
2018-10-16T19:00:20.530Z,38.03
2018-10-16T19:05:23.991Z,37.20
2018-10-16T19:10:27.424Z,34.37
2018-10-16T19:15:31.172Z,36.93
2018-10-16T19:20:34.619Z,40.20
2018-10-16T19:25:38.051Z,40.47
2018-10-16T19:30:41.443Z,39.77
2018-10-16T19:35:44.863Z,38.40
2018-10-16T19:40:48.328Z,37.33
2018-10-16T19:45:51.735Z,34.10
2018-10-16T19:50:55.207Z,29.07
2018-10-16T19:55:58.611Z,30.70
2018-10-16T20:01:01.980Z,31.57
2018-10-16T20:06:05.455Z,30.70
2018-10-16T20:11:08.913Z,28.03
2018-10-16T20:16:12.403Z,26.67
2018-10-16T20:21:15.787Z,26.70
2018-10-16T20:26:19.300Z,26.50
2018-10-16T20:31:22.732Z,24.97
2018-10-16T20:36:26.259Z,25.40
2018-10-16T20:41:29.623Z,24.40
2018-10-16T20:46:33.027Z,26.30
2018-10-16T20:51:37.371Z,29.33
2018-10-16T20:56:40.796Z,25.23
2018-10-16T21:01:44.188Z,23.03
2018-10-16T21:06:47.897Z,21.87
2018-10-16T21:11:51.025Z,21.10
2018-10-16T21:16:54.436Z,19.90
2018-10-16T21:21:57.828Z,20.33
2018-10-16T21:27:03.810Z,20.07
2018-10-16T21:32:07.862Z,19.47
2018-10-16T21:37:11.288Z,18.73
2018-10-16T21:42:14.698Z,18.33
2018-10-16T21:47:18.182Z,18.57
2018-10-16T21:52:21.732Z,18.87
2018-10-16T21:57:25.123Z,18.33
2018-10-16T22:02:34.058Z,18.37
2018-10-16T22:07:37.464Z,18.43
2018-10-16T22:12:40.860Z,18.77
2018-10-16T22:17:44.458Z,18.00
2018-10-16T22:22:47.969Z,18.20
2018-10-16T22:27:51.387Z,17.10
2018-10-16T22:32:54.751Z,16.95
2018-10-16T22:37:58.145Z,17.07
2018-10-16T22:43:01.574Z,17.47
2018-10-16T22:48:05.272Z,16.23
2018-10-16T22:53:08.723Z,15.67
2018-10-16T22:58:12.109Z,16.23
2018-10-16T23:03:15.508Z,15.73
2018-10-16T23:08:18.898Z,15.57
2018-10-16T23:13:22.279Z,16.03
2018-10-16T23:18:25.658Z,16.43
2018-10-16T23:23:29.074Z,16.80
2018-10-16T23:28:32.499Z,16.13
2018-10-16T23:33:35.895Z,16.60
2018-10-16T23:38:39.302Z,16.03
2018-10-16T23:43:42.734Z,16.77
2018-10-16T23:48:46.159Z,16.57
2018-10-16T23:53:49.586Z,16.75
2018-10-16T23:58:53.030Z,17.00
